Time;durP1;ratioP1;P1;durP2;ratioP2;P2;SDS_P1;SDS_P2;PMS_P1;PMS_P2;Temp;Humidity;BMP_temperature;BMP_pressure;BME280_temperature;BME280_humidity;BME280_pressure;Samples;Min_cycle;Max_cycle;Signal;HPM_P1;HPM_P2
2021/04/22 00:01:14;;;;;;;4.63;1.20;;;16.70;55.60;;;;;;4955727;28;20104;-59
2021/04/22 00:03:40;;;;;;;4.63;1.48;;;16.70;55.50;;;;;;4973103;28;20171;-59
2021/04/22 00:06:06;;;;;;;5.93;1.58;;;16.60;55.40;;;;;;4973292;28;20470;-58
2021/04/22 00:08:31;;;;;;;9.02;1.67;;;16.90;55.70;;;;;;4973000;28;20058;-58
2021/04/22 00:10:57;;;;;;;6.13;1.45;;;17.40;55.90;;;;;;4973051;28;20069;-59
2021/04/22 00:13:28;;;;;;;6.50;1.17;;;16.80;55.70;;;;;;4972903;28;20126;-59
2021/04/22 00:15:55;;;;;;;3.45;1.42;;;16.80;55.90;;;;;;4973030;28;20035;-58
2021/04/22 00:18:21;;;;;;;5.43;1.25;;;16.60;55.80;;;;;;4973290;28;20070;-58
2021/04/22 00:20:47;;;;;;;5.47;1.48;;;16.60;55.70;;;;;;4972979;28;20039;-59
2021/04/22 00:23:15;;;;;;;5.05;1.40;;;17.10;55.90;;;;;;4972915;28;20023;-58
2021/04/22 00:25:41;;;;;;;5.57;1.45;;;16.60;55.60;;;;;;4972934;28;20027;-58
2021/04/22 00:28:07;;;;;;;6.35;1.52;;;16.50;55.50;;;;;;4973176;28;20465;-59
2021/04/22 00:30:34;;;;;;;5.78;1.42;;;16.50;56.30;;;;;;4955522;28;20125;-58
2021/04/22 00:33:00;;;;;;;3.78;1.25;;;17.30;55.90;;;;;;4972788;28;20031;-57
2021/04/22 00:35:25;;;;;;;5.50;1.40;;;16.30;55.30;;;;;;4955486;28;20022;-59
2021/04/22 00:37:51;;;;;;;4.43;1.52;;;16.50;55.40;;;;;;4973001;28;20382;-58
2021/04/22 00:40:21;;;;;;;4.90;1.50;;;16.50;55.50;;;;;;4974664;28;20494;-58
2021/04/22 00:42:47;;;;;;;4.80;1.40;;;16.50;56.20;;;;;;4976735;28;20085;-58
2021/04/22 00:45:13;;;;;;;4.65;1.33;;;16.50;55.50;;;;;;4976394;28;20023;-57
2021/04/22 00:47:39;;;;;;;6.75;1.70;;;16.40;54.50;;;;;;4976363;28;20022;-58
2021/04/22 00:50:07;;;;;;;4.50;1.65;;;16.70;55.50;;;;;;4958950;28;20405;-59
2021/04/22 00:52:34;;;;;;;5.53;1.58;;;16.40;54.20;;;;;;4976224;28;20122;-59
2021/04/22 00:54:59;;;;;;;4.45;1.63;;;16.60;55.50;;;;;;4976177;28;20023;-58
2021/04/22 00:57:25;;;;;;;7.97;1.67;;;16.70;55.40;;;;;;4976193;28;20041;-58
2021/04/22 00:59:51;;;;;;;3.65;1.42;;;16.60;55.30;;;;;;4976128;28;20019;-58
2021/04/22 01:02:17;;;;;;;5.15;1.48;;;16.30;55.10;;;;;;4975909;28;20565;-59
2021/04/22 01:04:47;;;;;;;5.63;1.60;;;16.40;55.00;;;;;;4976029;28;20502;-58
2021/04/22 01:07:16;;;;;;;4.18;1.35;;;16.40;55.40;;;;;;4975985;28;20054;-58
2021/04/22 01:09:42;;;;;;;5.75;2.03;;;16.10;83.10;;;;;;4975934;28;20077;-59
2021/04/22 01:12:10;;;;;;;5.35;1.90;;;16.40;55.30;;;;;;4975676;28;20532;-58
2021/04/22 01:14:36;;;;;;;5.20;1.75;;;16.30;55.30;;;;;;4975923;28;20030;-58
2021/04/22 01:17:01;;;;;;;4.53;1.58;;;16.20;55.20;;;;;;4975740;28;20070;-58
2021/04/22 01:19:27;;;;;;;3.95;1.58;;;16.30;55.30;;;;;;4975796;28;20041;-58
2021/04/22 01:21:53;;;;;;;6.43;1.58;;;16.40;55.50;;;;;;4958477;28;20046;-58
2021/04/22 01:24:19;;;;;;;4.53;1.38;;;16.30;55.30;;;;;;4976000;28;20425;-59
2021/04/22 01:26:45;;;;;;;4.13;1.48;;;16.30;55.50;;;;;;4975650;28;20482;-58
2021/04/22 01:29:11;;;;;;;6.05;1.52;;;16.40;55.60;;;;;;4958312;28;20019;-58
2021/04/22 01:31:37;;;;;;;4.43;1.45;;;16.30;55.50;;;;;;4958120;28;20592;-58
2021/04/22 01:34:09;;;;;;;6.40;1.80;;;16.60;55.70;;;;;;4975487;28;20101;-58
2021/04/22 01:36:39;;;;;;;5.60;1.50;;;16.30;55.60;;;;;;4975581;28;20054;-59
2021/04/22 01:39:07;;;;;;;4.97;1.75;;;16.20;52.30;;;;;;4975661;28;20624;-59
2021/04/22 01:41:33;;;;;;;4.28;1.55;;;16.60;55.70;;;;;;4975298;28;20039;-57
2021/04/22 01:43:59;;;;;;;4.22;1.38;;;16.20;55.40;;;;;;4975348;28;20454;-58
2021/04/22 01:46:25;;;;;;;4.85;1.55;;;16.20;55.40;;;;;;4975473;28;20031;-58
2021/04/22 01:48:51;;;;;;;4.55;1.90;;;16.30;55.60;;;;;;4975526;28;20102;-58
2021/04/22 01:51:18;;;;;;;5.47;1.88;;;16.40;55.50;;;;;;4957818;28;20033;-57
2021/04/22 01:53:43;;;;;;;5.50;1.42;;;16.80;55.90;;;;;;4975380;28;20046;-58
2021/04/22 01:56:09;;;;;;;3.08;1.52;;;16.10;55.40;;;;;;4975028;28;20557;-58
2021/04/22 01:58:35;;;;;;;6.75;1.98;;;16.30;55.60;;;;;;4975049;28;20068;-57
2021/04/22 02:01:01;;;;;;;4.93;1.92;;;16.20;55.50;;;;;;4974920;28;20035;-58
2021/04/22 02:03:32;;;;;;;4.35;1.58;;;16.20;83.00;;;;;;4975220;28;20102;-58
2021/04/22 02:05:58;;;;;;;6.45;1.88;;;16.20;55.80;;;;;;4957552;28;20081;-58
2021/04/22 02:08:24;;;;;;;7.00;1.70;;;16.20;55.70;;;;;;4974917;28;20034;-58
2021/04/22 02:10:50;;;;;;;6.38;2.05;;;16.20;55.60;;;;;;4975093;28;20034;-58
2021/04/22 02:13:17;;;;;;;5.15;1.60;;;16.10;55.60;;;;;;4957423;28;20055;-58
2021/04/22 02:15:44;;;;;;;5.20;1.50;;;16.30;56.00;;;;;;4975011;28;20038;-58
2021/04/22 02:18:09;;;;;;;3.83;1.58;;;16.50;56.00;;;;;;4975018;28;20094;-58
2021/04/22 02:20:35;;;;;;;4.32;1.75;;;16.10;55.60;;;;;;4974666;28;20114;-58
2021/04/22 02:23:01;;;;;;;4.75;1.60;;;16.40;55.90;;;;;;4974918;28;20051;-58
2021/04/22 02:25:28;;;;;;;7.15;1.83;;;16.30;55.90;;;;;;4974731;28;20033;-59
2021/04/22 02:27:55;;;;;;;3.90;1.60;;;17.00;56.30;;;;;;4974773;28;20027;-58
2021/04/22 02:30:22;;;;;;;5.80;1.60;;;16.50;56.10;;;;;;4974436;28;20113;-58
2021/04/22 02:32:49;;;;;;;6.53;1.63;;;16.10;55.20;;;;;;4974445;28;20027;-58
2021/04/22 02:35:22;;;;;;;5.40;1.90;;;16.10;56.10;;;;;;4974485;28;20031;-58
2021/04/22 02:37:48;;;;;;;3.80;1.75;;;16.00;56.20;;;;;;4974469;28;20116;-60
2021/04/22 02:40:17;;;;;;;6.70;1.75;;;16.90;56.50;;;;;;4974614;28;20109;-57
2021/04/22 02:42:43;;;;;;;8.40;1.95;;;16.30;56.40;;;;;;4956990;28;20039;-59
2021/04/22 02:45:15;;;;;;;5.45;1.67;;;16.40;56.30;;;;;;4974134;28;20019;-58
2021/04/22 02:47:41;;;;;;;4.03;1.95;;;16.00;55.40;;;;;;4974090;28;20058;-58
2021/04/22 02:50:10;;;;;;;3.55;1.70;;;15.90;56.00;;;;;;4973992;28;20425;-58
2021/04/22 02:52:35;;;;;;;5.80;2.42;;;15.90;55.80;;;;;;4973944;28;20489;-58
2021/04/22 02:55:02;;;;;;;4.95;1.85;;;16.00;56.00;;;;;;4956580;28;20030;-58
2021/04/22 02:57:28;;;;;;;5.05;1.80;;;16.00;55.90;;;;;;4973811;28;20058;-58
2021/04/22 02:59:53;;;;;;;5.38;1.83;;;16.60;56.00;;;;;;4974246;28;20054;-58
2021/04/22 03:02:19;;;;;;;6.03;2.15;;;16.10;56.00;;;;;;4973237;28;20110;-57
2021/04/22 03:04:45;;;;;;;3.75;1.40;;;15.90;56.00;;;;;;4973856;28;20413;-58
2021/04/22 03:07:11;;;;;;;5.07;1.92;;;15.90;56.00;;;;;;4974034;28;20383;-59
2021/04/22 03:09:36;;;;;;;4.30;1.65;;;15.80;56.10;;;;;;4973942;28;20489;-58
2021/04/22 03:12:02;;;;;;;5.18;1.88;;;16.80;56.80;;;;;;4973545;28;20359;-58
2021/04/22 03:14:28;;;;;;;4.43;1.70;;;15.90;55.60;;;;;;4973851;28;20466;-58
2021/04/22 03:16:53;;;;;;;5.85;2.10;;;16.80;56.70;;;;;;4973582;28;20023;-59
2021/04/22 03:19:19;;;;;;;5.18;1.80;;;15.90;56.20;;;;;;4973528;28;20090;-58
2021/04/22 03:21:44;;;;;;;5.15;1.52;;;15.90;56.20;;;;;;4973503;28;20074;-58
2021/04/22 03:24:10;;;;;;;4.90;2.00;;;16.60;56.60;;;;;;4973445;28;20041;-57
2021/04/22 03:26:36;;;;;;;6.80;2.10;;;15.80;55.70;;;;;;4973467;28;20023;-58
2021/04/22 03:29:03;;;;;;;3.95;1.80;;;16.00;56.30;;;;;;4973692;28;20030;-58
2021/04/22 03:31:29;;;;;;;6.88;1.83;;;15.80;56.00;;;;;;4973396;28;20027;-58
2021/04/22 03:33:55;;;;;;;5.28;2.05;;;15.80;56.20;;;;;;4973326;28;20019;-58
2021/04/22 03:36:20;;;;;;;5.00;2.05;;;15.90;56.40;;;;;;4973590;28;20035;-58
2021/04/22 03:38:46;;;;;;;7.97;2.10;;;15.90;56.40;;;;;;4956013;28;20466;-58
2021/04/22 03:41:12;;;;;;;4.25;1.80;;;15.90;56.40;;;;;;4956235;28;20029;-57
2021/04/22 03:43:37;;;;;;;4.88;2.15;;;15.80;56.30;;;;;;4973502;28;20031;-58
2021/04/22 03:46:03;;;;;;;6.07;2.40;;;15.80;56.30;;;;;;4973255;28;20073;-58
2021/04/22 03:48:28;;;;;;;4.00;1.83;;;15.80;56.40;;;;;;4973465;28;20027;-58
2021/04/22 03:50:54;;;;;;;3.75;2.00;;;16.60;56.80;;;;;;4973121;28;20097;-58
2021/04/22 03:53:20;;;;;;;4.57;1.63;;;16.20;56.70;;;;;;4973253;28;20034;-57
2021/04/22 03:55:45;;;;;;;5.97;2.42;;;16.10;56.40;;;;;;4955923;28;20397;-58
2021/04/22 03:58:11;;;;;;;4.88;1.90;;;16.20;56.80;;;;;;4973174;28;20414;-59
2021/04/22 04:00:36;;;;;;;6.75;2.05;;;16.10;56.60;;;;;;4955828;28;20038;-58
2021/04/22 04:03:02;;;;;;;6.00;2.15;;;15.70;56.50;;;;;;4973022;28;20101;-58
2021/04/22 04:05:28;;;;;;;4.75;1.95;;;15.70;56.20;;;;;;4955783;28;20051;-58
2021/04/22 04:07:54;;;;;;;4.00;1.67;;;16.10;56.70;;;;;;4973367;28;20359;-58
2021/04/22 04:10:20;;;;;;;6.80;2.33;;;15.60;56.40;;;;;;4955624;28;20038;-58
2021/04/22 04:12:45;;;;;;;5.45;1.85;;;16.10;56.80;;;;;;4955490;28;20059;-58
2021/04/22 04:15:12;;;;;;;8.55;2.20;;;15.70;56.50;;;;;;4974603;28;20067;-59
2021/04/22 04:17:38;;;;;;;4.63;2.05;;;15.70;56.10;;;;;;4976896;28;20030;-57
2021/04/22 04:20:07;;;;;;;6.20;2.03;;;16.00;56.50;;;;;;4976940;28;20019;-58
2021/04/22 04:22:33;;;;;;;5.55;1.83;;;15.70;53.10;;;;;;4977182;28;20509;-59
2021/04/22 04:24:59;;;;;;;7.65;2.20;;;16.30;56.90;;;;;;4976749;28;20023;-57
2021/04/22 04:27:24;;;;;;;5.28;1.98;;;15.70;56.60;;;;;;4977036;28;20038;-57
2021/04/22 04:29:51;;;;;;;6.25;2.20;;;16.00;56.80;;;;;;4976912;28;20019;-56
2021/04/22 04:32:16;;;;;;;5.30;2.13;;;16.00;57.00;;;;;;4959269;28;20027;-58
2021/04/22 04:34:42;;;;;;;4.53;1.63;;;16.60;57.40;;;;;;4959228;28;20065;-58
2021/04/22 04:37:08;;;;;;;7.95;2.67;;;15.40;56.10;;;;;;4976740;28;20049;-58
2021/04/22 04:39:33;;;;;;;5.10;2.03;;;15.60;56.60;;;;;;4976721;28;20090;-57
2021/04/22 04:41:59;;;;;;;5.78;2.00;;;15.70;56.60;;;;;;4976428;28;20038;-57
2021/04/22 04:44:25;;;;;;;5.60;2.13;;;16.30;57.00;;;;;;4959086;28;20486;-58
2021/04/22 04:46:50;;;;;;;6.65;2.47;;;15.90;57.00;;;;;;4959058;28;20051;-57
2021/04/22 04:49:16;;;;;;;5.68;2.28;;;15.60;56.60;;;;;;4958971;28;20034;-58
2021/04/22 04:51:42;;;;;;;8.45;2.53;;;15.60;56.60;;;;;;4959098;28;20037;-58
2021/04/22 04:54:08;;;;;;;3.75;1.60;;;15.60;56.70;;;;;;4976302;28;20114;-59
2021/04/22 04:56:33;;;;;;;8.10;1.83;;;15.60;57.10;;;;;;4976221;28;20031;-58
2021/04/22 04:58:59;;;;;;;3.63;2.00;;;15.60;56.60;;;;;;4942909;28;20034;-58
2021/04/22 05:01:25;;;;;;;2.92;1.35;;;15.60;56.80;;;;;;4976037;28;20047;-57
2021/04/22 05:03:51;;;;;;;6.20;1.95;;;15.60;56.80;;;;;;4976158;28;20110;-58
2021/04/22 05:06:17;;;;;;;5.93;1.80;;;15.60;56.80;;;;;;4976140;28;20035;-58
2021/04/22 05:08:42;;;;;;;4.63;1.98;;;15.50;56.70;;;;;;4976088;28;20034;-58
2021/04/22 05:11:08;;;;;;;4.72;1.67;;;15.60;56.80;;;;;;4975820;28;20022;-58
2021/04/22 05:13:33;;;;;;;4.05;1.92;;;15.50;56.80;;;;;;4976040;28;20038;-58
2021/04/22 05:15:59;;;;;;;3.95;1.65;;;15.50;56.80;;;;;;4975835;28;20030;-57
2021/04/22 05:18:28;;;;;;;5.22;1.55;;;16.40;57.30;;;;;;4975818;28;20031;-57
2021/04/22 05:20:53;;;;;;;4.38;1.75;;;15.60;57.10;;;;;;4975668;28;20485;-57
2021/04/22 05:23:20;;;;;;;3.85;1.90;;;15.50;57.00;;;;;;4975770;28;20035;-57
2021/04/22 05:25:47;;;;;;;5.07;1.70;;;15.60;56.90;;;;;;4957775;28;20022;-58
2021/04/22 05:28:12;;;;;;;5.97;1.88;;;15.90;57.50;;;;;;4975616;28;20027;-58
2021/04/22 05:30:41;;;;;;;4.55;1.90;;;16.20;57.50;;;;;;4975687;28;20484;-58
2021/04/22 05:33:10;;;;;;;3.67;1.52;;;15.40;57.10;;;;;;4958692;28;20493;-57
2021/04/22 05:35:36;;;;;;;5.75;1.85;;;15.50;56.70;;;;;;4975576;28;20106;-57
2021/04/22 05:38:02;;;;;;;4.68;1.77;;;15.80;57.30;;;;;;4957965;28;20027;-57
2021/04/22 05:40:28;;;;;;;5.15;1.52;;;16.20;57.50;;;;;;4975228;28;20126;-57
2021/04/22 05:42:53;;;;;;;3.63;1.67;;;15.50;57.20;;;;;;4957940;28;20026;-57
2021/04/22 05:45:19;;;;;;;5.55;2.00;;;15.50;57.10;;;;;;4958058;28;20478;-58
2021/04/22 05:47:46;;;;;;;3.22;1.25;;;15.50;57.30;;;;;;4958044;28;20464;-59
2021/04/22 05:50:13;;;;;;;5.68;1.50;;;15.70;57.60;;;;;;4975461;28;20113;-56
2021/04/22 05:52:39;;;;;;;7.82;1.52;;;15.50;56.80;;;;;;4975010;28;20526;-57
2021/04/22 05:55:05;;;;;;;3.75;1.70;;;15.50;57.30;;;;;;4975234;28;20121;-58
2021/04/22 05:57:31;;;;;;;7.88;2.00;;;15.40;55.80;;;;;;4975008;28;20031;-56
2021/04/22 05:59:57;;;;;;;4.88;1.35;;;15.60;57.30;;;;;;4975389;28;20034;-57
2021/04/22 06:02:23;;;;;;;4.28;1.83;;;16.10;57.60;;;;;;4975209;28;20117;-57
2021/04/22 06:04:48;;;;;;;4.68;1.92;;;15.90;57.60;;;;;;4974968;28;20027;-57
2021/04/22 06:07:14;;;;;;;2.53;1.60;;;15.60;57.60;;;;;;4974942;28;20027;-56
2021/04/22 06:09:40;;;;;;;5.45;1.52;;;15.90;57.80;;;;;;4974868;28;20023;-57
2021/04/22 06:12:06;;;;;;;6.63;1.90;;;15.70;58.10;;;;;;4974672;28;20050;-58
2021/04/22 06:14:32;;;;;;;4.28;1.48;;;15.60;56.40;;;;;;4974868;28;20023;-57
2021/04/22 06:16:58;;;;;;;5.82;1.98;;;15.60;57.90;;;;;;4974767;28;20019;-58
2021/04/22 06:19:23;;;;;;;5.30;1.50;;;15.60;57.80;;;;;;4974742;28;20042;-56
2021/04/22 06:21:49;;;;;;;3.70;1.70;;;15.60;57.80;;;;;;4974538;28;20549;-58
2021/04/22 06:24:15;;;;;;;6.43;2.00;;;15.60;57.90;;;;;;4974091;28;20030;-58
2021/04/22 06:26:40;;;;;;;5.35;2.00;;;16.00;58.60;;;;;;4974504;28;20073;-59
2021/04/22 06:29:08;;;;;;;4.95;1.67;;;15.70;58.30;;;;;;4974345;28;20030;-59
2021/04/22 06:31:33;;;;;;;5.40;1.70;;;16.40;58.80;;;;;;4974328;28;20027;-59
2021/04/22 06:33:59;;;;;;;5.38;1.52;;;15.70;58.40;;;;;;4974332;28;20023;-56
2021/04/22 06:36:25;;;;;;;3.83;1.73;;;15.90;59.20;;;;;;4957006;28;20031;-56
2021/04/22 06:38:50;;;;;;;5.43;1.80;;;15.80;58.30;;;;;;4956229;28;20106;-57
2021/04/22 06:41:16;;;;;;;4.47;1.98;;;15.80;58.60;;;;;;4956638;28;20043;-56
2021/04/22 06:43:41;;;;;;;7.40;1.50;;;15.80;58.40;;;;;;4974085;28;20026;-57
2021/04/22 06:46:07;;;;;;;5.90;1.95;;;16.20;58.80;;;;;;4974328;28;20037;-57
2021/04/22 06:48:33;;;;;;;5.88;1.55;;;16.20;58.50;;;;;;4974311;28;20019;-57
2021/04/22 06:50:58;;;;;;;5.13;2.20;;;16.30;58.30;;;;;;4973999;28;20520;-59
2021/04/22 06:53:24;;;;;;;4.88;1.60;;;15.90;59.00;;;;;;4973842;28;20478;-59
2021/04/22 06:55:49;;;;;;;4.65;1.50;;;16.90;61.60;;;;;;4973825;28;20470;-59
2021/04/22 06:58:15;;;;;;;6.32;1.75;;;16.10;65.90;;;;;;4973951;28;20026;-58
2021/04/22 07:00:43;;;;;;;4.18;1.40;;;16.10;62.30;;;;;;4973698;28;20043;-58
2021/04/22 07:03:08;;;;;;;6.63;1.58;;;17.00;61.80;;;;;;4973812;28;20050;-59
2021/04/22 07:05:35;;;;;;;7.78;1.58;;;16.10;61.10;;;;;;4973847;28;20102;-59
2021/04/22 07:08:01;;;;;;;6.00;1.33;;;16.20;60.50;;;;;;4973649;28;20110;-59
2021/04/22 07:10:27;;;;;;;3.50;1.35;;;16.20;60.20;;;;;;4973408;28;20524;-59
2021/04/22 07:12:53;;;;;;;5.30;1.48;;;16.30;60.00;;;;;;4973386;28;20057;-60
2021/04/22 07:15:19;;;;;;;3.25;1.38;;;16.50;61.50;;;;;;4973581;28;20061;-59
2021/04/22 07:17:45;;;;;;;4.95;1.58;;;16.30;61.80;;;;;;4973524;28;20110;-59
2021/04/22 07:20:14;;;;;;;7.70;2.28;;;16.40;61.20;;;;;;4973450;28;20441;-59
2021/04/22 07:22:40;;;;;;;3.88;1.35;;;16.20;60.40;;;;;;4973318;28;20035;-59
2021/04/22 07:25:08;;;;;;;5.25;1.70;;;16.40;61.00;;;;;;4973616;28;20381;-59
2021/04/22 07:27:33;;;;;;;3.47;1.25;;;16.30;60.30;;;;;;4973380;28;20023;-59
2021/04/22 07:29:59;;;;;;;4.45;1.02;;;16.50;61.30;;;;;;4956339;28;20055;-59
2021/04/22 07:32:25;;;;;;;5.63;1.25;;;16.50;60.90;;;;;;4955977;28;20026;-59
2021/04/22 07:34:50;;;;;;;4.47;1.40;;;16.40;60.80;;;;;;4973259;28;20030;-59
2021/04/22 07:37:17;;;;;;;4.15;1.35;;;16.40;61.30;;;;;;4973229;28;20030;-60
2021/04/22 07:39:44;;;;;;;3.92;1.58;;;17.30;61.80;;;;;;4973462;28;20057;-59
2021/04/22 07:42:10;;;;;;;3.92;1.15;;;16.50;65.30;;;;;;4973143;28;20035;-59
2021/04/22 07:44:35;;;;;;;6.03;1.20;;;16.40;62.00;;;;;;4973138;28;20470;-59
2021/04/22 07:47:02;;;;;;;3.60;1.30;;;16.90;64.40;;;;;;4955818;28;20034;-59
2021/04/22 07:49:28;;;;;;;2.83;1.30;;;16.40;56.10;;;;;;4972868;28;20027;-59
2021/04/22 07:51:54;;;;;;;3.25;1.25;;;16.20;55.10;;;;;;4973296;28;20386;-60
2021/04/22 07:54:19;;;;;;;5.88;1.52;;;16.40;55.90;;;;;;4973093;28;20029;-59
2021/04/22 07:56:45;;;;;;;2.95;1.42;;;16.80;56.90;;;;;;4972989;28;20037;-59
2021/04/22 07:59:11;;;;;;;6.40;1.48;;;16.70;58.90;;;;;;4973151;28;20110;-60
2021/04/22 08:01:36;;;;;;;2.58;0.90;;;16.60;58.00;;;;;;4972868;28;20039;-60
2021/04/22 08:04:04;;;;;;;4.47;1.27;;;16.70;58.10;;;;;;4973271;28;20023;-60
2021/04/22 08:06:30;;;;;;;3.22;1.35;;;16.50;55.20;;;;;;4972973;28;20034;-61
2021/04/22 08:08:55;;;;;;;3.20;1.10;;;16.50;82.40;;;;;;4955476;28;20106;-61
2021/04/22 08:11:21;;;;;;;4.65;1.40;;;16.50;54.90;;;;;;4972924;28;20038;-61
2021/04/22 08:13:46;;;;;;;4.60;1.13;;;16.50;55.10;;;;;;4973257;28;20035;-61
2021/04/22 08:16:12;;;;;;;4.03;1.45;;;16.90;56.40;;;;;;4972968;28;20512;-60
2021/04/22 08:18:38;;;;;;;4.55;1.10;;;17.00;58.30;;;;;;4973169;28;20138;-61
2021/04/22 08:21:04;;;;;;;5.25;1.25;;;17.10;61.10;;;;;;4972718;28;20593;-61
2021/04/22 08:23:32;;;;;;;4.80;1.48;;;16.70;58.30;;;;;;4973113;28;20027;-61
2021/04/22 08:26:00;;;;;;;3.60;1.45;;;17.10;60.80;;;;;;4972817;28;20452;-61
2021/04/22 08:28:27;;;;;;;3.83;1.15;;;17.10;58.90;;;;;;4972873;28;20382;-61
2021/04/22 08:31:09;;;;;;;3.97;1.25;;;16.90;58.80;;;;;;4973098;28;20027;-61
2021/04/22 08:33:36;;;;;;;3.03;0.90;;;16.80;54.80;;;;;;4972857;28;20037;-61
2021/04/22 08:36:05;;;;;;;2.67;1.25;;;16.90;59.10;;;;;;4972732;28;20030;-61
2021/04/22 08:38:31;;;;;;;5.43;1.60;;;17.00;60.60;;;;;;4972793;28;20050;-61
2021/04/22 08:40:57;;;;;;;5.72;1.30;;;17.30;73.10;;;;;;4972588;28;20490;-61
2021/04/22 08:43:23;;;;;;;2.70;1.10;;;17.10;58.90;;;;;;4972917;28;20417;-61
2021/04/22 08:45:50;;;;;;;3.67;1.05;;;17.20;57.20;;;;;;4972732;28;20374;-61
2021/04/22 08:48:15;;;;;;;3.05;0.70;;;17.20;56.50;;;;;;4972808;28;20014;-61
2021/04/22 08:50:44;;;;;;;3.13;1.10;;;17.00;54.10;;;;;;4972615;28;20486;-61
2021/04/22 08:53:25;;;;;;;4.53;1.10;;;17.10;55.10;;;;;;4972681;28;20023;-61
2021/04/22 08:55:52;;;;;;;1.58;0.82;;;16.90;52.20;;;;;;4973056;28;20023;-61
2021/04/22 08:58:17;;;;;;;3.63;1.15;;;17.30;56.80;;;;;;4972616;28;20034;-61
2021/04/22 09:00:51;;;;;;;6.38;1.45;;;17.40;56.70;;;;;;4973282;28;20552;-61
2021/04/22 09:03:18;;;;;;;4.53;1.20;;;17.10;52.40;;;;;;4976368;28;20031;-61
2021/04/22 09:05:44;;;;;;;4.30;1.30;;;17.20;55.30;;;;;;4975826;28;20109;-61
2021/04/22 09:08:09;;;;;;;4.85;1.15;;;17.40;56.00;;;;;;4958546;28;20114;-61
2021/04/22 09:10:36;;;;;;;2.83;0.90;;;17.50;57.70;;;;;;4958477;28;20039;-61
2021/04/22 09:13:11;;;;;;;2.70;1.10;;;17.70;56.40;;;;;;4975665;28;20375;-61
2021/04/22 09:15:40;;;;;;;2.78;1.20;;;17.80;56.60;;;;;;4976121;28;20046;-61
2021/04/22 09:18:10;;;;;;;4.85;1.40;;;17.40;56.50;;;;;;4975870;28;20023;-61
2021/04/22 09:20:42;;;;;;;3.17;1.27;;;17.60;56.30;;;;;;4975753;28;20174;-61
2021/04/22 09:23:24;;;;;;;3.88;0.90;;;17.70;57.20;;;;;;4958138;28;20506;-60
2021/04/22 09:26:02;;;;;;;4.15;1.23;;;17.50;51.10;;;;;;4975719;28;20085;-61
2021/04/22 09:28:38;;;;;;;3.92;1.10;;;17.60;59.10;;;;;;4975769;28;20023;-61
2021/04/22 09:31:04;;;;;;;3.15;1.20;;;17.50;77.80;;;;;;4975516;28;20030;-61
2021/04/22 09:33:31;;;;;;;3.97;1.45;;;18.30;75.10;;;;;;4975424;28;20033;-61
2021/04/22 09:36:10;;;;;;;5.25;0.93;;;18.10;55.50;;;;;;4975623;28;20026;-62
2021/04/22 09:38:37;;;;;;;3.53;1.02;;;17.70;55.00;;;;;;4975611;28;20173;-62
2021/04/22 09:41:08;;;;;;;3.40;0.95;;;18.10;53.20;;;;;;4975444;28;20073;-62
2021/04/22 09:43:34;;;;;;;4.05;1.00;;;17.70;51.00;;;;;;4975177;28;20027;-62
2021/04/22 09:45:59;;;;;;;4.30;1.42;;;17.60;50.00;;;;;;4975308;28;20026;-62
2021/04/22 09:48:28;;;;;;;6.60;1.10;;;18.40;50.10;;;;;;4975125;28;20027;-62
2021/04/22 09:50:55;;;;;;;3.42;0.85;;;17.80;49.30;;;;;;4975047;28;20090;-62
2021/04/22 09:53:24;;;;;;;3.70;1.08;;;17.60;49.20;;;;;;4975117;28;20105;-62
2021/04/22 09:55:52;;;;;;;4.73;1.20;;;17.70;49.00;;;;;;4975267;28;20058;-62
2021/04/22 09:58:29;;;;;;;3.60;1.00;;;17.80;49.90;;;;;;4975139;28;20027;-62
2021/04/22 10:00:55;;;;;;;2.95;1.10;;;17.80;49.80;;;;;;4975172;28;20026;-62
2021/04/22 10:03:21;;;;;;;3.03;1.25;;;17.90;49.70;;;;;;4974935;28;20565;-62
2021/04/22 10:05:59;;;;;;;3.03;1.48;;;17.80;49.90;;;;;;4974928;28;20030;-62
2021/04/22 10:08:25;;;;;;;5.75;1.13;;;18.10;76.30;;;;;;4975068;28;20102;-63
2021/04/22 10:11:07;;;;;;;5.38;1.48;;;17.90;49.70;;;;;;4974937;28;20026;-61
2021/04/22 10:13:49;;;;;;;6.53;1.25;;;18.10;48.70;;;;;;4974741;28;20126;-61
2021/04/22 10:16:15;;;;;;;4.75;1.40;;;18.10;48.50;;;;;;4957288;28;20034;-61
2021/04/22 10:18:44;;;;;;;3.60;1.05;;;18.20;48.80;;;;;;4974917;28;20026;-62
2021/04/22 10:21:10;;;;;;;3.78;1.17;;;18.20;49.00;;;;;;4974819;28;20027;-62
2021/04/22 10:23:36;;;;;;;2.92;0.93;;;18.40;49.40;;;;;;4975001;28;20027;-62
2021/04/22 10:26:03;;;;;;;3.70;1.00;;;18.10;49.00;;;;;;4974604;28;20389;-61
2021/04/22 10:28:29;;;;;;;5.90;1.10;;;18.10;49.00;;;;;;4974646;28;20108;-61
2021/04/22 10:30:56;;;;;;;4.13;1.23;;;18.40;49.30;;;;;;4974475;28;20062;-62
2021/04/22 10:33:24;;;;;;;3.90;1.10;;;18.40;49.30;;;;;;4974368;28;20030;-61
2021/04/22 10:35:50;;;;;;;4.60;1.05;;;18.40;48.90;;;;;;4974479;28;20049;-61
2021/04/22 10:38:18;;;;;;;4.22;1.00;;;18.80;49.30;;;;;;4974406;28;20715;-62
2021/04/22 10:40:48;;;;;;;3.05;1.15;;;18.40;49.10;;;;;;4974321;28;20030;-62
2021/04/22 10:43:22;;;;;;;5.23;1.20;;;18.50;48.90;;;;;;4974415;28;20134;-61
2021/04/22 10:45:48;;;;;;;3.63;1.20;;;18.60;48.50;;;;;;4974325;28;20378;-61
2021/04/22 10:48:14;;;;;;;5.30;1.33;;;18.70;49.60;;;;;;4974261;28;20033;-61
2021/04/22 10:50:47;;;;;;;12.45;1.40;;;18.70;50.90;;;;;;4974181;28;20106;-61
2021/04/22 10:53:16;;;;;;;2.65;1.15;;;18.80;51.70;;;;;;4974146;28;20042;-61
2021/04/22 10:55:46;;;;;;;3.53;1.13;;;18.70;53.00;;;;;;4974121;28;20035;-60
2021/04/22 10:58:22;;;;;;;2.75;0.90;;;18.90;54.60;;;;;;4974086;28;20033;-60
2021/04/22 11:01:00;;;;;;;5.68;1.40;;;19.00;55.60;;;;;;4973985;28;20489;-61
2021/04/22 11:03:29;;;;;;;5.90;1.45;;;19.20;57.30;;;;;;4956514;28;20423;-60
2021/04/22 11:06:11;;;;;;;2.85;1.17;;;19.00;57.40;;;;;;4956631;28;20015;-61
2021/04/22 11:08:51;;;;;;;6.60;1.83;;;19.00;57.40;;;;;;4973827;28;20035;-61
2021/04/22 11:11:18;;;;;;;12.73;1.52;;;19.00;55.10;;;;;;4974128;28;20109;-61
2021/04/22 11:13:44;;;;;;;5.07;1.38;;;18.90;54.50;;;;;;4973581;28;20047;-61
2021/04/22 11:16:10;;;;;;;7.97;1.15;;;19.00;55.40;;;;;;4973986;28;20034;-62
2021/04/22 11:18:44;;;;;;;6.65;1.45;;;19.10;55.70;;;;;;4973996;28;20374;-61
2021/04/22 11:21:24;;;;;;;6.00;1.38;;;20.10;56.40;;;;;;4973475;28;20027;-61
2021/04/22 11:23:49;;;;;;;5.70;1.10;;;19.50;56.60;;;;;;4973303;28;20033;-61
2021/04/22 11:26:31;;;;;;;6.45;1.65;;;19.20;56.50;;;;;;4956276;28;20026;-62
2021/04/22 11:29:10;;;;;;;7.75;1.23;;;19.30;55.70;;;;;;4973839;28;20246;-61
2021/04/22 11:31:46;;;;;;;5.30;1.48;;;19.30;56.40;;;;;;4973457;28;20023;-62
2021/04/22 11:34:12;;;;;;;3.53;1.08;;;19.40;56.80;;;;;;4973334;28;20033;-63
2021/04/22 11:36:49;;;;;;;3.60;1.20;;;19.20;57.40;;;;;;4973456;28;20371;-62
2021/04/22 11:39:15;;;;;;;4.65;1.10;;;19.40;57.50;;;;;;4973713;28;20023;-62
2021/04/22 11:41:54;;;;;;;4.20;1.45;;;19.40;57.50;;;;;;4973389;28;20556;-61
2021/04/22 11:44:40;;;;;;;5.27;1.27;;;19.40;57.10;;;;;;4973930;28;20018;-62
2021/04/22 11:47:28;;;;;;;3.42;1.33;;;19.50;56.80;;;;;;4973675;28;20018;-62
2021/04/22 11:50:17;;;;;;;4.18;1.35;;;19.50;56.70;;;;;;4973326;28;20018;-61
2021/04/22 11:52:50;;;;;;;3.63;1.55;;;19.50;56.80;;;;;;4973592;28;20053;-62
2021/04/22 11:55:30;;;;;;;4.47;1.30;;;19.60;56.40;;;;;;4973309;28;20489;-59
2021/04/22 11:58:04;;;;;;;7.85;1.30;;;19.60;56.40;;;;;;4973252;28;20019;-59
2021/04/22 12:00:32;;;;;;;5.68;1.55;;;19.60;56.90;;;;;;4973259;28;20027;-62
2021/04/22 12:02:59;;;;;;;8.05;1.35;;;19.70;58.20;;;;;;4973350;28;20049;-61
2021/04/22 12:05:25;;;;;;;5.57;1.33;;;19.90;57.90;;;;;;4973269;28;20024;-61
2021/04/22 12:08:09;;;;;;;6.90;1.38;;;19.60;84.70;;;;;;4955721;28;20110;-62
2021/04/22 12:10:38;;;;;;;4.03;1.33;;;19.70;57.90;;;;;;4973008;28;20014;-61
2021/04/22 12:13:07;;;;;;;3.55;1.10;;;19.70;57.80;;;;;;4972943;28;20043;-61
2021/04/22 12:15:44;;;;;;;4.88;1.25;;;20.00;58.20;;;;;;4973054;28;20026;-61
2021/04/22 12:18:19;;;;;;;6.57;1.23;;;19.70;58.30;;;;;;4973043;28;20031;-61
2021/04/22 12:20:44;;;;;;;5.25;1.70;;;20.00;58.20;;;;;;4973290;28;20027;-61
2021/04/22 12:23:11;;;;;;;3.55;1.40;;;20.10;58.50;;;;;;4973213;28;20490;-61
2021/04/22 12:25:36;;;;;;;3.17;1.30;;;19.90;58.50;;;;;;4972926;28;20026;-61
2021/04/22 12:28:05;;;;;;;3.38;1.10;;;20.00;58.30;;;;;;4973169;28;20488;-61
2021/04/22 12:30:40;;;;;;;5.03;1.30;;;19.80;58.20;;;;;;4972927;28;20385;-61
2021/04/22 12:33:11;;;;;;;4.20;1.25;;;20.10;58.70;;;;;;4972926;28;20070;-61
2021/04/22 12:35:40;;;;;;;4.15;1.23;;;19.90;57.80;;;;;;4973618;28;20026;-62
2021/04/22 12:38:28;;;;;;;3.53;1.45;;;19.90;57.90;;;;;;4959323;28;20025;-61
2021/04/22 12:40:59;;;;;;;3.78;1.05;;;19.90;56.00;;;;;;4976572;28;20049;-61
2021/04/22 12:43:29;;;;;;;3.85;0.98;;;20.20;58.30;;;;;;4976565;28;20057;-61
2021/04/22 12:45:56;;;;;;;6.07;1.40;;;20.10;58.90;;;;;;4976523;28;20114;-61
2021/04/22 12:48:22;;;;;;;5.68;1.08;;;20.20;58.90;;;;;;4976644;28;20026;-62
2021/04/22 12:50:49;;;;;;;4.32;1.40;;;20.50;59.20;;;;;;4976357;28;20369;-61